createdAt,value
2018-07-16T00:02:41.464Z,2.60
2018-07-16T00:07:45.454Z,1.75
2018-07-16T00:12:49.212Z,3.00
2018-07-16T00:17:53.170Z,2.50
2018-07-16T00:22:57.018Z,2.50
2018-07-16T00:28:01.017Z,3.00
2018-07-16T00:33:04.998Z,3.00
2018-07-16T00:38:09.125Z,3.00
2018-07-16T00:43:13.037Z,3.00
2018-07-16T00:48:16.904Z,4.00
2018-07-16T00:53:20.744Z,3.00
2018-07-16T00:58:24.555Z,2.40
2018-07-16T01:03:28.480Z,3.20
2018-07-16T01:08:32.751Z,3.25
2018-07-16T01:13:36.590Z,2.40
2018-07-16T01:18:40.559Z,4.40
2018-07-16T01:23:44.591Z,3.00
2018-07-16T01:28:48.638Z,4.00
2018-07-16T01:33:52.637Z,3.20
2018-07-16T01:38:56.492Z,3.25
2018-07-16T01:44:00.324Z,3.25
2018-07-16T01:49:04.175Z,3.00
2018-07-16T01:54:08.070Z,3.00
2018-07-16T01:59:11.803Z,3.00
2018-07-16T02:04:15.688Z,3.40
2018-07-16T02:09:19.541Z,3.00
2018-07-16T02:14:23.434Z,2.60
2018-07-16T02:19:27.256Z,3.00
2018-07-16T02:24:31.011Z,3.75
2018-07-16T02:29:34.862Z,3.20
2018-07-16T02:34:39.212Z,4.00
2018-07-16T02:39:43.073Z,4.00
2018-07-16T02:44:46.942Z,4.50
2018-07-16T02:49:50.760Z,3.40
2018-07-16T02:54:54.637Z,4.00
2018-07-16T02:59:58.486Z,3.50
2018-07-16T03:05:03.715Z,4.00
2018-07-16T03:10:08.913Z,4.80
2018-07-16T03:15:12.945Z,4.00
2018-07-16T03:20:16.776Z,3.25
2018-07-16T03:25:20.611Z,5.00
2018-07-16T03:30:24.364Z,4.00
2018-07-16T03:35:28.166Z,4.50
2018-07-16T03:40:32.009Z,4.50
2018-07-16T03:45:35.862Z,5.00
2018-07-16T03:50:39.726Z,5.00
2018-07-16T03:55:43.624Z,5.40
2018-07-16T04:00:47.473Z,5.00
2018-07-16T04:05:51.344Z,4.00
2018-07-16T04:10:55.211Z,7.00
2018-07-16T04:15:59.075Z,6.75
2018-07-16T04:21:02.890Z,7.50
2018-07-16T04:26:06.696Z,7.00
2018-07-16T04:31:10.605Z,7.80
2018-07-16T04:36:14.446Z,8.00
2018-07-16T04:41:18.339Z,9.25
2018-07-16T04:46:22.139Z,6.25
2018-07-16T04:51:25.969Z,8.25
2018-07-16T04:56:29.835Z,8.80
2018-07-16T05:01:33.631Z,9.00
2018-07-16T05:06:37.477Z,9.60
2018-07-16T05:11:41.341Z,7.80
2018-07-16T05:16:45.183Z,9.75
2018-07-16T05:21:49.052Z,9.00
2018-07-16T05:26:52.867Z,7.50
2018-07-16T05:31:56.619Z,8.80
2018-07-16T05:37:00.390Z,9.25
2018-07-16T05:42:04.233Z,10.00
2018-07-16T05:47:08.109Z,7.25
2018-07-16T05:52:12.002Z,7.75
2018-07-16T05:57:16.057Z,7.00
2018-07-16T06:02:19.906Z,6.75
2018-07-16T06:07:23.593Z,6.60
2018-07-16T06:12:27.357Z,6.60
2018-07-16T06:17:31.187Z,6.75
2018-07-16T06:22:35.012Z,5.25
2018-07-16T06:27:39.410Z,6.50
2018-07-16T06:32:43.242Z,6.50
2018-07-16T06:37:53.546Z,6.50
2018-07-16T06:42:57.393Z,5.00
2018-07-16T06:48:01.236Z,5.75
2018-07-16T06:53:05.080Z,4.75
2018-07-16T06:58:08.951Z,4.75
2018-07-16T07:03:12.831Z,4.40
2018-07-16T07:08:16.658Z,5.00
2018-07-16T07:13:20.496Z,4.00
2018-07-16T07:18:24.301Z,4.00
2018-07-16T07:23:28.166Z,4.75
2018-07-16T07:28:32.022Z,3.80
2018-07-16T07:33:36.263Z,5.00
2018-07-16T07:38:40.106Z,5.00
2018-07-16T07:43:43.946Z,4.00
2018-07-16T07:48:47.823Z,4.60
2018-07-16T07:53:51.634Z,3.80
2018-07-16T07:58:55.439Z,5.00
2018-07-16T08:03:59.231Z,3.50
2018-07-16T08:09:03.015Z,5.25
2018-07-16T08:14:06.948Z,5.00
2018-07-16T08:19:10.784Z,4.00
2018-07-16T08:24:14.625Z,5.00
2018-07-16T08:29:18.519Z,4.20
2018-07-16T08:34:22.405Z,4.00
2018-07-16T08:39:26.243Z,3.25
2018-07-16T08:44:30.088Z,4.00
2018-07-16T08:49:33.838Z,4.00
2018-07-16T08:54:37.725Z,3.25
2018-07-16T08:59:41.847Z,4.00
2018-07-16T09:04:45.679Z,5.00
2018-07-16T09:09:49.509Z,4.00
2018-07-16T09:14:53.316Z,3.00
2018-07-16T09:19:57.172Z,4.75
2018-07-16T09:25:01.140Z,4.00
2018-07-16T09:30:05.896Z,3.00
2018-07-16T09:35:09.854Z,3.00
2018-07-16T09:40:13.576Z,3.75
2018-07-16T09:45:17.418Z,4.60
2018-07-16T09:50:21.285Z,4.00
2018-07-16T09:55:25.330Z,4.60
2018-07-16T10:00:34.323Z,4.00
2018-07-16T10:05:38.166Z,4.00
2018-07-16T10:10:42.034Z,3.75
2018-07-16T10:15:45.855Z,4.00
2018-07-16T10:20:49.776Z,4.60
2018-07-16T10:25:53.632Z,4.00
2018-07-16T10:30:57.362Z,4.00
2018-07-16T10:36:01.140Z,3.80
2018-07-16T10:41:04.932Z,4.50
2018-07-16T10:46:08.710Z,4.00
2018-07-16T10:51:12.646Z,4.40
2018-07-16T10:56:16.549Z,5.60
2018-07-16T11:01:20.490Z,5.00
2018-07-16T11:06:25.438Z,4.00
2018-07-16T11:11:29.286Z,4.80
2018-07-16T11:16:33.135Z,4.00
2018-07-16T11:21:36.954Z,5.00
2018-07-16T11:26:40.858Z,4.00
2018-07-16T11:31:44.720Z,3.00
2018-07-16T11:36:48.544Z,4.80
2018-07-16T11:41:52.315Z,4.00
2018-07-16T11:46:56.090Z,4.50
2018-07-16T11:52:00.876Z,5.00
2018-07-16T11:57:04.706Z,4.80
2018-07-16T12:02:08.592Z,5.20
2018-07-16T12:07:12.386Z,4.80
2018-07-16T12:12:16.206Z,4.75
2018-07-16T12:17:20.035Z,4.00
2018-07-16T12:22:23.877Z,4.00
2018-07-16T12:27:27.745Z,4.25
2018-07-16T12:32:31.540Z,4.80
2018-07-16T12:37:35.373Z,5.20
2018-07-16T12:42:39.214Z,4.00
2018-07-16T12:47:42.970Z,6.00
2018-07-16T12:52:46.751Z,5.00
2018-07-16T12:57:50.505Z,5.00
2018-07-16T13:02:54.335Z,4.60
2018-07-16T13:07:58.237Z,3.50
2018-07-16T13:13:02.056Z,4.25
2018-07-16T13:18:05.915Z,4.00
2018-07-16T13:23:09.806Z,4.60
2018-07-16T13:28:14.296Z,4.80
2018-07-16T13:33:18.231Z,5.50
2018-07-16T13:38:22.090Z,5.00
2018-07-16T13:43:26.386Z,3.50
2018-07-16T13:48:30.147Z,4.00
2018-07-16T13:53:34.030Z,4.80
2018-07-16T13:58:37.850Z,4.20
2018-07-16T14:03:41.655Z,5.00
2018-07-16T14:08:45.509Z,4.00
2018-07-16T14:13:49.355Z,4.50
2018-07-16T14:18:53.214Z,4.00
2018-07-16T14:23:57.059Z,3.25
2018-07-16T14:29:01.445Z,4.60
2018-07-16T14:34:05.648Z,5.00
2018-07-16T14:39:10.599Z,3.80
2018-07-16T14:44:15.501Z,3.00
2018-07-16T14:49:20.194Z,2.50
2018-07-16T14:54:25.000Z,2.75
2018-07-16T14:59:28.906Z,3.80
2018-07-16T15:04:33.907Z,4.00
2018-07-16T15:09:38.590Z,4.20
2018-07-16T15:14:43.492Z,2.25
2018-07-16T15:19:47.293Z,3.00
2018-07-16T15:24:51.720Z,4.00
2018-07-16T15:29:55.521Z,3.60
2018-07-16T15:34:59.270Z,3.25
2018-07-16T15:40:04.123Z,3.50
2018-07-16T15:45:08.170Z,4.00
2018-07-16T15:50:12.421Z,3.40
2018-07-16T15:55:16.465Z,4.00
2018-07-16T16:00:20.409Z,3.00
2018-07-16T16:05:24.228Z,3.40
2018-07-16T16:10:28.769Z,3.00
2018-07-16T16:15:32.590Z,7.00
2018-07-16T16:20:36.451Z,8.00
2018-07-16T16:25:40.237Z,9.20
2018-07-16T16:30:45.318Z,7.00
2018-07-16T16:35:49.790Z,7.25
2018-07-16T16:40:54.713Z,7.00
2018-07-16T16:45:58.618Z,6.20
2018-07-16T16:51:04.278Z,6.00
2018-07-16T16:56:08.253Z,5.00
2018-07-16T17:01:12.936Z,6.00
2018-07-16T17:06:17.046Z,5.75
2018-07-16T17:11:21.592Z,5.75
2018-07-16T17:16:25.746Z,4.60
2018-07-16T17:21:30.588Z,4.00
2018-07-16T17:26:34.380Z,5.00
2018-07-16T17:31:39.125Z,5.75
2018-07-16T17:36:42.898Z,5.00
2018-07-16T17:41:47.588Z,4.40
2018-07-16T17:46:51.723Z,5.00
2018-07-16T17:51:56.427Z,5.50
2018-07-16T17:57:00.305Z,5.00
2018-07-16T18:02:05.496Z,4.50
2018-07-16T18:07:13.514Z,4.00
2018-07-16T18:12:19.385Z,4.40
2018-07-16T18:17:24.226Z,4.75
2018-07-16T18:22:29.123Z,3.00
2018-07-16T18:27:34.061Z,4.00
2018-07-16T18:32:39.146Z,4.75
2018-07-16T18:37:43.767Z,4.50
2018-07-16T18:42:48.260Z,5.00
2018-07-16T18:47:52.868Z,3.50
2018-07-16T18:52:58.463Z,5.00
2018-07-16T18:58:02.321Z,4.00
2018-07-16T19:03:07.065Z,5.00
2018-07-16T19:08:11.058Z,3.00
2018-07-16T19:13:16.124Z,2.20
2018-07-16T19:18:20.025Z,4.00
2018-07-16T19:23:24.927Z,3.25
2018-07-16T19:28:28.992Z,3.60
2018-07-16T19:33:32.844Z,3.25
2018-07-16T19:38:38.134Z,3.20
2018-07-16T19:43:42.441Z,3.00
2018-07-16T19:48:46.393Z,3.00
2018-07-16T19:53:50.223Z,4.00
2018-07-16T19:58:54.013Z,3.00
2018-07-16T20:03:57.945Z,4.00
2018-07-16T20:09:01.808Z,2.80
2018-07-16T20:14:05.775Z,4.20
2018-07-16T20:19:09.762Z,3.40
2018-07-16T20:24:13.514Z,3.00
2018-07-16T20:29:17.290Z,3.75
2018-07-16T20:34:21.163Z,3.75
2018-07-16T20:39:25.779Z,4.00
2018-07-16T20:44:29.830Z,4.00
2018-07-16T20:49:33.752Z,4.00
2018-07-16T20:54:37.667Z,3.60
2018-07-16T20:59:41.511Z,5.00
2018-07-16T21:04:45.534Z,4.40
2018-07-16T21:09:49.499Z,5.00
2018-07-16T21:14:54.024Z,5.00
2018-07-16T21:19:58.132Z,4.60
2018-07-16T21:25:02.152Z,6.00
2018-07-16T21:30:06.257Z,4.00
2018-07-16T21:35:10.492Z,5.40
2018-07-16T21:40:14.617Z,5.00
2018-07-16T21:45:18.360Z,5.80
2018-07-16T21:50:22.093Z,5.00
2018-07-16T21:55:25.938Z,5.25
2018-07-16T22:00:31.038Z,5.50
2018-07-16T22:05:34.840Z,5.00
2018-07-16T22:10:38.644Z,5.50
2018-07-16T22:15:42.513Z,5.00
2018-07-16T22:20:46.338Z,5.00
2018-07-16T22:25:50.121Z,5.00
2018-07-16T22:30:53.925Z,5.50
2018-07-16T22:35:57.758Z,5.20
2018-07-16T22:41:01.563Z,6.25
2018-07-16T22:46:05.447Z,5.60
2018-07-16T22:51:09.172Z,6.20
2018-07-16T22:56:12.984Z,6.00
2018-07-16T23:01:16.829Z,5.75
2018-07-16T23:06:20.669Z,5.20
2018-07-16T23:11:24.512Z,7.40
2018-07-16T23:16:28.387Z,7.25
2018-07-16T23:21:32.200Z,9.00
2018-07-16T23:26:36.067Z,10.75
2018-07-16T23:31:39.921Z,9.50
2018-07-16T23:36:43.762Z,8.00
2018-07-16T23:41:47.666Z,8.00
2018-07-16T23:46:51.497Z,7.00
2018-07-16T23:51:55.308Z,9.80
2018-07-16T23:56:59.107Z,7.00
